createdAt,value
2018-07-02T00:00:41.239Z,70.20
2018-07-02T00:03:09.392Z,71.20
2018-07-02T00:05:49.014Z,70.10
2018-07-02T00:08:17.043Z,69.90
2018-07-02T00:10:45.050Z,70.70
2018-07-02T00:13:13.102Z,71.50
2018-07-02T00:15:41.121Z,71.80
2018-07-02T00:18:09.149Z,71.30
2018-07-02T00:20:37.163Z,72.90
2018-07-02T00:23:05.187Z,72.20
2018-07-02T00:25:33.211Z,72.60
2018-07-02T00:28:01.242Z,72.40
2018-07-02T00:30:29.258Z,72.80
2018-07-02T00:32:57.274Z,73.70
2018-07-02T00:35:25.289Z,72.20
2018-07-02T00:37:53.718Z,73.40
2018-07-02T00:40:21.726Z,72.30
2018-07-02T00:45:17.542Z,74.10
2018-07-02T00:47:45.558Z,72.60
2018-07-02T00:50:13.575Z,73.80
2018-07-02T00:52:41.594Z,73.40
2018-07-02T00:55:09.614Z,73.10
2018-07-02T00:57:37.639Z,72.70
2018-07-02T01:00:15.538Z,72.40
2018-07-02T01:02:43.794Z,72.40
2018-07-02T01:05:12.371Z,72.40
2018-07-02T01:07:40.726Z,72.00
2018-07-02T01:10:08.742Z,72.90
2018-07-02T01:12:36.944Z,72.80
2018-07-02T01:15:05.198Z,72.20
2018-07-02T01:17:33.214Z,72.60
2018-07-02T01:20:01.239Z,72.40
2018-07-02T01:22:29.280Z,72.90
2018-07-02T01:24:57.289Z,72.60
2018-07-02T01:27:25.322Z,72.00
2018-07-02T01:32:21.162Z,71.50
2018-07-02T01:34:49.179Z,71.60
2018-07-02T01:37:17.194Z,71.30
2018-07-02T01:39:45.205Z,71.60
2018-07-02T01:42:13.226Z,71.70
2018-07-02T01:44:41.472Z,72.20
2018-07-02T01:47:09.482Z,72.40
2018-07-02T01:49:37.498Z,72.90
2018-07-02T01:52:05.527Z,71.70
2018-07-02T01:54:33.553Z,72.60
2018-07-02T01:59:29.372Z,72.80
2018-07-02T02:01:57.387Z,71.30
2018-07-02T02:04:25.423Z,70.10
2018-07-02T02:06:53.470Z,71.00
2018-07-02T02:09:21.481Z,69.80
2018-07-02T02:11:49.498Z,69.80
2018-07-02T02:14:17.522Z,69.80
2018-07-02T02:16:45.533Z,70.00
2018-07-02T02:19:13.559Z,70.30
2018-07-02T02:21:41.576Z,70.60
2018-07-02T02:24:09.600Z,70.50
2018-07-02T02:26:37.627Z,71.00
2018-07-02T02:29:05.651Z,70.60
2018-07-02T02:31:33.681Z,70.60
2018-07-02T02:34:01.715Z,70.50
2018-07-02T02:36:29.721Z,71.30
2018-07-02T02:38:57.731Z,71.70
2018-07-02T02:41:25.742Z,71.70
2018-07-02T02:43:53.892Z,72.30
2018-07-02T02:46:22.142Z,72.40
2018-07-02T02:48:50.167Z,73.00
2018-07-02T02:51:18.178Z,72.80
2018-07-02T02:53:46.202Z,73.60
2018-07-02T02:56:14.218Z,74.30
2018-07-02T02:58:42.226Z,74.00
2018-07-02T03:01:10.243Z,74.10
2018-07-02T03:03:38.258Z,73.90
2018-07-02T03:06:06.274Z,74.00
2018-07-02T03:08:34.295Z,73.90
2018-07-02T03:11:02.329Z,74.30
2018-07-02T03:13:30.346Z,74.40
2018-07-02T03:15:58.363Z,75.00
2018-07-02T03:18:26.382Z,75.10
2018-07-02T03:20:54.404Z,75.50
2018-07-02T03:23:22.420Z,76.00
2018-07-02T03:25:50.633Z,75.40
2018-07-02T03:28:18.648Z,76.00
2018-07-02T03:30:46.661Z,76.30
2018-07-02T03:33:14.670Z,76.10
2018-07-02T03:35:42.700Z,76.60
2018-07-02T03:38:10.697Z,76.60
2018-07-02T03:40:38.705Z,76.10
2018-07-02T03:43:06.711Z,76.30
2018-07-02T03:45:34.726Z,77.00
2018-07-02T03:50:30.569Z,77.60
2018-07-02T03:52:58.591Z,77.00
2018-07-02T03:55:26.603Z,76.50
2018-07-02T03:57:54.666Z,76.70
2018-07-02T04:00:22.682Z,77.50
2018-07-02T04:02:50.695Z,78.80
2018-07-02T04:05:18.722Z,79.00
2018-07-02T04:07:46.735Z,78.60
2018-07-02T04:10:14.746Z,78.80
2018-07-02T04:12:42.764Z,78.70
2018-07-02T04:15:10.777Z,79.20
2018-07-02T04:17:38.782Z,80.10
2018-07-02T04:20:06.807Z,79.00
2018-07-02T04:22:34.831Z,79.90
2018-07-02T04:25:02.842Z,78.80
2018-07-02T04:27:30.866Z,79.00
2018-07-02T04:29:58.874Z,78.50
2018-07-02T04:32:26.891Z,78.90
2018-07-02T04:34:54.903Z,80.70
2018-07-02T04:37:22.919Z,81.20
2018-07-02T04:39:50.930Z,81.70
2018-07-02T04:44:46.758Z,79.90
2018-07-02T04:47:14.770Z,83.20
2018-07-02T04:49:42.782Z,85.30
2018-07-02T04:52:10.798Z,81.40
2018-07-02T04:54:38.818Z,82.10
2018-07-02T04:57:06.830Z,83.80
2018-07-02T04:59:35.126Z,80.10
2018-07-02T05:02:03.316Z,83.00
2018-07-02T05:04:31.127Z,82.00
2018-07-02T05:06:58.486Z,80.20
2018-07-02T05:09:25.842Z,81.60
2018-07-02T05:11:53.399Z,81.00
2018-07-02T05:16:47.727Z,81.20
2018-07-02T05:19:15.102Z,80.40
2018-07-02T05:21:42.466Z,81.00
2018-07-02T05:24:10.487Z,81.80
2018-07-02T05:26:37.842Z,81.70
2018-07-02T05:29:05.210Z,81.80
2018-07-02T05:31:32.610Z,80.90
2018-07-02T05:33:59.978Z,81.60
2018-07-02T05:36:27.366Z,82.00
2018-07-02T05:38:54.791Z,81.50
2018-07-02T05:41:22.121Z,80.80
2018-07-02T05:43:50.141Z,80.90
2018-07-02T05:46:17.582Z,81.40
2018-07-02T05:48:45.638Z,81.50
2018-07-02T05:51:12.994Z,81.90
2018-07-02T05:56:08.265Z,79.00
2018-07-02T05:58:35.658Z,80.40
2018-07-02T06:01:03.069Z,80.50
2018-07-02T06:03:30.446Z,79.00
2018-07-02T06:05:58.609Z,78.30
2018-07-02T06:08:26.056Z,79.20
2018-07-02T06:10:54.051Z,78.80
2018-07-02T06:15:49.911Z,77.30
2018-07-02T06:18:17.928Z,73.10
2018-07-02T06:20:45.310Z,75.10
2018-07-02T06:23:12.669Z,71.10
2018-07-02T06:25:40.050Z,72.50
2018-07-02T06:28:08.071Z,73.30
2018-07-02T06:30:36.169Z,73.10
2018-07-02T06:33:04.126Z,73.60
2018-07-02T06:35:32.142Z,71.80
2018-07-02T06:38:00.164Z,71.20
2018-07-02T06:40:28.194Z,73.20
2018-07-02T06:42:56.216Z,71.10
2018-07-02T06:45:24.227Z,72.10
2018-07-02T06:47:52.247Z,71.70
2018-07-02T06:50:20.266Z,73.00
2018-07-02T06:52:48.307Z,70.80
2018-07-02T06:55:16.327Z,71.20
2018-07-02T06:57:44.355Z,69.80
2018-07-02T07:00:12.370Z,69.80
2018-07-02T07:02:40.510Z,69.80
2018-07-02T07:05:08.527Z,69.60
2018-07-02T07:07:36.543Z,70.00
2018-07-02T07:10:04.590Z,69.40
2018-07-02T07:12:32.602Z,68.30
2018-07-02T07:15:00.619Z,67.20
2018-07-02T07:17:28.650Z,68.40
2018-07-02T07:19:56.666Z,67.70
2018-07-02T07:22:24.674Z,68.60
2018-07-02T07:24:52.038Z,68.40
2018-07-02T07:27:20.051Z,68.50
2018-07-02T07:29:48.071Z,67.10
2018-07-02T07:32:16.083Z,65.40
2018-07-02T07:34:44.095Z,66.50
2018-07-02T07:37:12.098Z,67.30
2018-07-02T07:39:40.122Z,66.50
2018-07-02T07:42:07.478Z,64.10
2018-07-02T07:44:35.509Z,65.40
2018-07-02T07:47:03.531Z,65.70
2018-07-02T07:51:59.366Z,63.50
2018-07-02T07:54:27.434Z,63.90
2018-07-02T07:56:55.454Z,65.30
2018-07-02T07:59:23.474Z,61.90
2018-07-02T08:01:51.485Z,62.10
2018-07-02T08:04:19.493Z,61.40
2018-07-02T08:06:47.502Z,59.60
2018-07-02T08:09:15.509Z,59.10
2018-07-02T08:11:43.719Z,60.40
2018-07-02T08:14:11.744Z,60.60
2018-07-02T08:16:39.754Z,58.00
2018-07-02T08:19:07.828Z,58.60
2018-07-02T08:21:35.803Z,58.70
2018-07-02T08:26:31.639Z,59.30
2018-07-02T08:28:59.669Z,58.40
2018-07-02T08:33:55.478Z,58.20
2018-07-02T08:36:23.493Z,58.60
2018-07-02T08:38:51.507Z,58.10
2018-07-02T08:41:19.538Z,58.40
2018-07-02T08:46:15.427Z,58.20
2018-07-02T08:48:43.438Z,57.50
2018-07-02T08:51:11.456Z,57.40
2018-07-02T08:53:39.470Z,56.50
2018-07-02T08:56:07.479Z,57.90
2018-07-02T08:58:35.495Z,57.70
2018-07-02T09:01:03.827Z,58.30
2018-07-02T09:03:31.858Z,57.40
2018-07-02T09:05:59.887Z,57.00
2018-07-02T09:08:27.910Z,57.20
2018-07-02T09:10:55.921Z,56.90
2018-07-02T09:13:23.931Z,55.80
2018-07-02T09:15:51.945Z,57.30
2018-07-02T09:18:19.953Z,58.30
2018-07-02T09:23:15.792Z,55.40
2018-07-02T09:25:43.794Z,56.90
2018-07-02T09:28:11.814Z,58.40
2018-07-02T09:30:39.926Z,54.20
2018-07-02T09:33:07.955Z,54.60
2018-07-02T09:35:35.966Z,53.10
2018-07-02T09:38:03.994Z,55.10
2018-07-02T09:40:32.004Z,53.90
2018-07-02T09:43:00.026Z,53.10
2018-07-02T09:45:27.378Z,52.40
2018-07-02T09:47:54.734Z,52.20
2018-07-02T09:50:22.090Z,56.00
2018-07-02T09:52:49.658Z,56.70
2018-07-02T09:55:17.206Z,53.00
2018-07-02T09:57:44.571Z,53.40
2018-07-02T10:00:11.930Z,54.90
2018-07-02T10:02:39.306Z,54.10
2018-07-02T10:05:06.665Z,54.60
2018-07-02T10:07:34.127Z,51.50
2018-07-02T10:10:01.491Z,53.80
2018-07-02T10:12:28.902Z,53.20
2018-07-02T10:14:56.870Z,51.40
2018-07-02T10:17:24.890Z,48.20
2018-07-02T10:19:52.898Z,49.40
2018-07-02T10:22:20.914Z,50.20
2018-07-02T10:27:16.746Z,51.30
2018-07-02T10:29:44.758Z,50.10
2018-07-02T10:32:12.118Z,49.40
2018-07-02T10:34:39.475Z,48.00
2018-07-02T10:37:07.486Z,47.30
2018-07-02T10:39:35.505Z,51.90
2018-07-02T10:42:03.530Z,52.20
2018-07-02T10:44:31.546Z,46.70
2018-07-02T10:46:59.577Z,50.20
2018-07-02T10:49:26.898Z,49.30
2018-07-02T10:51:54.610Z,49.20
2018-07-02T10:54:21.984Z,49.40
2018-07-02T10:56:49.342Z,48.50
2018-07-02T10:59:16.704Z,47.40
2018-07-02T11:01:44.718Z,48.80
2018-07-02T11:04:12.736Z,47.20
2018-07-02T11:06:40.778Z,46.30
2018-07-02T11:09:09.315Z,47.50
2018-07-02T11:11:37.331Z,47.40
2018-07-02T11:16:33.207Z,45.10
2018-07-02T11:19:01.230Z,48.90
2018-07-02T11:21:28.617Z,46.10
2018-07-02T11:23:56.630Z,46.70
2018-07-02T11:26:24.651Z,44.20
2018-07-02T11:28:52.018Z,43.80
2018-07-02T11:31:22.774Z,44.90
2018-07-02T11:33:50.791Z,44.70
2018-07-02T11:36:18.803Z,42.40
2018-07-02T11:38:46.164Z,45.10
2018-07-02T11:41:13.778Z,46.40
2018-07-02T11:43:41.141Z,46.10
2018-07-02T11:46:08.492Z,46.90
2018-07-02T11:48:35.855Z,43.40
2018-07-02T11:51:03.238Z,42.00
2018-07-02T11:53:30.609Z,44.20
2018-07-02T11:55:57.961Z,40.90
2018-07-02T11:58:25.328Z,44.80
2018-07-02T12:00:53.338Z,42.80
2018-07-02T12:05:47.845Z,41.60
2018-07-02T12:08:15.207Z,41.50
2018-07-02T12:10:42.568Z,41.00
2018-07-02T12:13:10.583Z,41.60
2018-07-02T12:15:37.945Z,41.90
2018-07-02T12:18:05.314Z,43.20
2018-07-02T12:20:32.713Z,44.30
2018-07-02T12:23:00.070Z,40.10
2018-07-02T12:25:27.430Z,41.40
2018-07-02T12:27:54.793Z,41.40
2018-07-02T12:30:22.160Z,38.50
2018-07-02T12:32:49.510Z,40.10
2018-07-02T12:35:16.874Z,43.30
2018-07-02T12:37:44.237Z,38.20
2018-07-02T12:42:39.402Z,39.30
2018-07-02T12:45:06.858Z,39.30
2018-07-02T12:47:34.214Z,40.00
2018-07-02T12:52:28.726Z,42.10
2018-07-02T12:54:56.126Z,39.00
2018-07-02T12:57:23.497Z,40.10
2018-07-02T12:59:50.873Z,38.00
2018-07-02T13:02:18.454Z,38.70
2018-07-02T13:04:45.807Z,40.30
2018-07-02T13:09:40.321Z,39.90
2018-07-02T13:12:08.479Z,42.30
2018-07-02T13:14:35.849Z,42.10
2018-07-02T13:17:03.442Z,38.50
2018-07-02T13:19:30.565Z,41.40
2018-07-02T13:21:57.936Z,40.70
2018-07-02T13:24:25.358Z,38.60
2018-07-02T13:26:52.836Z,40.10
2018-07-02T13:29:20.197Z,39.70
2018-07-02T13:31:47.566Z,40.00
2018-07-02T13:34:14.926Z,43.10
2018-07-02T13:36:42.385Z,38.90
2018-07-02T13:39:09.854Z,36.40
2018-07-02T13:41:37.294Z,37.50
2018-07-02T13:44:04.738Z,39.50
2018-07-02T13:46:32.114Z,39.10
2018-07-02T13:48:59.473Z,38.40
2018-07-02T13:51:26.854Z,41.50
2018-07-02T13:53:54.209Z,39.10
2018-07-02T13:56:21.575Z,38.20
2018-07-02T13:58:48.961Z,38.80
2018-07-02T14:01:16.328Z,39.10
2018-07-02T14:03:43.681Z,38.40
2018-07-02T14:08:38.854Z,39.90
2018-07-02T14:13:33.367Z,40.30
2018-07-02T14:16:00.966Z,36.70
2018-07-02T14:18:28.326Z,37.10
2018-07-02T14:20:55.690Z,35.50
2018-07-02T14:23:23.055Z,37.40
2018-07-02T14:25:50.430Z,37.00
2018-07-02T14:28:17.802Z,37.40
2018-07-02T14:30:45.169Z,37.20
2018-07-02T14:33:12.555Z,37.70
2018-07-02T14:35:39.898Z,38.90
2018-07-02T14:40:34.410Z,36.70
2018-07-02T14:43:01.786Z,34.80
2018-07-02T14:45:29.936Z,38.00
2018-07-02T14:47:57.190Z,35.70
2018-07-02T14:50:24.550Z,36.00
2018-07-02T14:52:51.925Z,40.20
2018-07-02T14:55:19.282Z,35.00
2018-07-02T14:57:46.650Z,36.10
2018-07-02T15:00:14.093Z,34.70
2018-07-02T15:02:41.385Z,35.50
2018-07-02T15:05:08.794Z,35.40
2018-07-02T15:10:03.357Z,35.20
2018-07-02T15:12:30.750Z,34.70
2018-07-02T15:14:58.141Z,35.70
2018-07-02T15:17:25.506Z,33.50
2018-07-02T15:19:52.870Z,34.10
2018-07-02T15:22:20.245Z,36.70
2018-07-02T15:24:47.625Z,33.60
2018-07-02T15:27:15.141Z,36.20
2018-07-02T15:29:42.556Z,34.10
2018-07-02T15:32:09.998Z,35.90
2018-07-02T15:34:37.358Z,33.80
2018-07-02T15:37:05.050Z,32.10
2018-07-02T15:39:32.445Z,34.60
2018-07-02T15:41:59.775Z,35.50
2018-07-02T15:44:27.138Z,36.70
2018-07-02T15:49:21.658Z,33.70
2018-07-02T15:51:49.013Z,31.80
2018-07-02T15:54:16.603Z,33.30
2018-07-02T15:56:43.737Z,32.90
2018-07-02T16:01:38.902Z,32.20
2018-07-02T16:04:06.443Z,32.80
2018-07-02T16:06:33.806Z,32.30
2018-07-02T16:09:01.191Z,31.60
2018-07-02T16:11:28.561Z,32.80
2018-07-02T16:13:55.954Z,33.10
2018-07-02T16:16:23.370Z,32.60
2018-07-02T16:18:50.737Z,32.60
2018-07-02T16:21:18.109Z,31.20
2018-07-02T16:23:45.486Z,33.60
2018-07-02T16:26:12.865Z,32.40
2018-07-02T16:28:40.230Z,32.70
2018-07-02T16:31:07.605Z,32.20
2018-07-02T16:33:34.965Z,32.20
2018-07-02T16:36:02.334Z,35.40
2018-07-02T16:38:29.698Z,33.30
2018-07-02T16:40:57.766Z,33.30
2018-07-02T16:43:25.138Z,33.60
2018-07-02T16:45:52.497Z,33.00
2018-07-02T16:48:20.518Z,34.10
2018-07-02T16:50:47.874Z,35.50
2018-07-02T16:53:15.264Z,32.70
2018-07-02T16:55:42.598Z,31.80
2018-07-02T16:58:09.958Z,33.40
2018-07-02T17:00:37.328Z,33.50
2018-07-02T17:07:58.986Z,33.90
2018-07-02T17:10:26.342Z,35.50
2018-07-02T17:12:53.711Z,34.00
2018-07-02T17:15:21.058Z,34.20
2018-07-02T17:20:15.613Z,34.10
2018-07-02T17:22:42.969Z,35.20
2018-07-02T17:25:10.325Z,35.90
2018-07-02T17:27:37.961Z,36.50
2018-07-02T17:30:06.857Z,36.20
2018-07-02T17:32:34.223Z,37.70
2018-07-02T17:35:01.587Z,36.70
2018-07-02T17:37:28.953Z,37.60
2018-07-02T17:39:56.354Z,36.20
2018-07-02T17:42:23.673Z,36.00
2018-07-02T17:44:51.033Z,37.00
2018-07-02T17:47:18.406Z,37.90
2018-07-02T17:49:45.761Z,38.00
2018-07-02T17:52:13.117Z,38.10
2018-07-02T17:54:40.493Z,37.90
2018-07-02T17:57:07.857Z,38.90
2018-07-02T17:59:35.223Z,38.70
2018-07-02T18:02:03.297Z,39.70
2018-07-02T18:04:31.323Z,39.60
2018-07-02T18:09:27.182Z,40.00
2018-07-02T18:11:54.559Z,41.40
2018-07-02T18:14:21.922Z,41.40
2018-07-02T18:16:49.942Z,41.50
2018-07-02T18:19:18.014Z,41.20
2018-07-02T18:21:46.056Z,42.00
2018-07-02T18:24:14.240Z,41.00
2018-07-02T18:26:42.356Z,42.50
2018-07-02T18:29:09.677Z,42.00
2018-07-02T18:31:37.715Z,42.40
2018-07-02T18:34:06.714Z,41.70
2018-07-02T18:36:34.734Z,43.30
2018-07-02T18:39:02.805Z,41.70
2018-07-02T18:41:30.914Z,43.10
2018-07-02T18:43:59.004Z,43.90
2018-07-02T18:46:27.014Z,44.70
2018-07-02T18:48:55.132Z,44.00
2018-07-02T18:51:23.066Z,43.40
2018-07-02T18:53:51.086Z,44.20
2018-07-02T18:56:18.448Z,43.80
2018-07-02T18:58:46.450Z,44.70
2018-07-02T19:01:14.459Z,44.20
2018-07-02T19:03:42.467Z,45.70
2018-07-02T19:06:10.519Z,45.20
2018-07-02T19:08:38.532Z,45.90
2018-07-02T19:11:06.536Z,45.90
2018-07-02T19:13:34.565Z,46.60
2018-07-02T19:16:02.570Z,46.00
2018-07-02T19:18:30.599Z,46.40
2018-07-02T19:20:58.619Z,46.70
2018-07-02T19:25:54.471Z,47.00
2018-07-02T19:28:22.516Z,46.60
2018-07-02T19:30:50.527Z,48.50
2018-07-02T19:35:46.407Z,46.70
2018-07-02T19:38:14.448Z,47.90
2018-07-02T19:40:42.516Z,47.70
2018-07-02T19:43:10.495Z,47.30
2018-07-02T19:45:38.510Z,46.80
2018-07-02T19:48:06.554Z,47.60
2018-07-02T19:50:34.630Z,46.40
2018-07-02T19:53:02.687Z,47.20
2018-07-02T19:55:30.755Z,46.70
2018-07-02T19:57:58.838Z,47.80
2018-07-02T20:02:54.841Z,48.00
2018-07-02T20:05:22.897Z,47.30
2018-07-02T20:07:50.915Z,47.00
2018-07-02T20:10:18.281Z,47.20
2018-07-02T20:12:45.737Z,47.20
2018-07-02T20:15:13.093Z,47.30
2018-07-02T20:17:40.462Z,47.50
2018-07-02T20:20:08.051Z,47.60
2018-07-02T20:22:35.406Z,48.10
2018-07-02T20:27:29.917Z,47.60
2018-07-02T20:29:57.295Z,47.50
2018-07-02T20:32:25.311Z,47.70
2018-07-02T20:34:53.359Z,47.70
2018-07-02T20:37:21.539Z,47.90
2018-07-02T20:39:49.566Z,47.80
2018-07-02T20:42:17.582Z,46.90
2018-07-02T20:47:13.519Z,48.10
2018-07-02T20:49:41.552Z,47.40
2018-07-02T20:52:09.559Z,47.60
2018-07-02T20:54:36.922Z,47.60
2018-07-02T20:57:04.333Z,47.50
2018-07-02T21:01:58.802Z,48.30
2018-07-02T21:04:26.178Z,49.20
2018-07-02T21:06:53.728Z,48.40
2018-07-02T21:09:22.723Z,48.70
2018-07-02T21:11:50.082Z,49.70
2018-07-02T21:14:17.458Z,50.40
2018-07-02T21:16:44.878Z,49.20
2018-07-02T21:19:12.251Z,49.30
2018-07-02T21:21:39.626Z,51.00
2018-07-02T21:24:07.649Z,49.70
2018-07-02T21:26:35.774Z,49.40
2018-07-02T21:29:03.761Z,49.40
2018-07-02T21:31:31.787Z,50.70
2018-07-02T21:33:59.815Z,50.40
2018-07-02T21:36:27.822Z,51.60
2018-07-02T21:38:55.887Z,50.50
2018-07-02T21:41:23.869Z,50.50
2018-07-02T21:43:51.883Z,50.50
2018-07-02T21:46:19.967Z,50.80
2018-07-02T21:48:48.034Z,50.90
2018-07-02T21:51:15.393Z,51.20
2018-07-02T21:53:42.759Z,51.50
2018-07-02T21:56:10.779Z,51.70
2018-07-02T21:58:38.146Z,51.70
2018-07-02T22:01:05.522Z,52.10
2018-07-02T22:03:33.613Z,52.90
2018-07-02T22:06:01.650Z,53.80
2018-07-02T22:08:29.667Z,53.60
2018-07-02T22:10:57.696Z,53.00
2018-07-02T22:13:25.715Z,53.30
2018-07-02T22:15:53.730Z,52.70
2018-07-02T22:18:21.804Z,52.90
2018-07-02T22:20:49.762Z,53.10
2018-07-02T22:23:17.785Z,53.40
2018-07-02T22:25:45.802Z,53.40
2018-07-02T22:28:13.819Z,54.00
2018-07-02T22:30:41.854Z,53.70
2018-07-02T22:33:09.871Z,53.40
2018-07-02T22:35:37.886Z,53.70
2018-07-02T22:38:05.902Z,53.80
2018-07-02T22:43:01.730Z,54.00
2018-07-02T22:45:29.787Z,54.10
2018-07-02T22:47:57.142Z,54.70
2018-07-02T22:50:24.542Z,54.70
2018-07-02T22:52:51.902Z,54.70
2018-07-02T22:55:19.923Z,55.20
2018-07-02T23:02:42.241Z,54.90
2018-07-02T23:05:09.593Z,55.30
2018-07-02T23:07:37.608Z,55.20
2018-07-02T23:10:04.989Z,55.70
2018-07-02T23:12:32.361Z,55.70
2018-07-02T23:14:59.738Z,56.00
2018-07-02T23:17:27.750Z,56.00
2018-07-02T23:19:55.115Z,56.10
2018-07-02T23:22:22.498Z,55.90
2018-07-02T23:27:17.033Z,56.80
2018-07-02T23:29:44.409Z,55.80
2018-07-02T23:32:11.798Z,56.10
2018-07-02T23:34:39.178Z,57.20
2018-07-02T23:37:06.569Z,56.50
2018-07-02T23:39:33.973Z,57.10
2018-07-02T23:42:01.354Z,57.90
2018-07-02T23:44:28.729Z,57.60
2018-07-02T23:49:31.338Z,57.40
2018-07-02T23:51:59.356Z,58.60
2018-07-02T23:54:27.370Z,57.90
2018-07-02T23:56:55.382Z,57.30
2018-07-02T23:59:22.745Z,56.80
